EGPK/PIK METAR and TAF weather

Enter ICAO airport designator
Station Type Date Time Source
EGPK METAR 2020/02/16 19:50 UTC NOAA

EGPK 161950Z 21025G40KT 9999 SCT027 07/01 Q0979


Station Type Date Time Source
EGPK Decoded METAR 2020/02/16 19:50 UTC NOAA

Prestwick Airport, United Kingdom (EGPK) 55-30N 004-35W 0M
Feb 16, 2020 - 02:50 PM EST / 2020.02.16 1950 UTC
Wind: from the SSW (210 degrees) at 29 MPH (25 KT) gusting to 46 MPH (40 KT):0
Visibility: greater than 7 mile(s):0
Sky conditions: partly cloudy
Temperature: 44 F (7 C)
Dew Point: 33 F (1 C)
Relative Humidity: 65%
Pressure (altimeter): 28.91 in. Hg (0979 hPa)
ob: EGPK 161950Z 21025G40KT 9999 SCT027 07/01 Q0979
cycle: 20

Station Type Date Time Source
EGPK TAF 2020/02/16 18:06 UTC NOAA

TAF EGPK 161657Z 1618/1718 21022G36KT 9999 SCT025
TEMPO 1618/1718 7000 SHRA BKN014CB PROB40
TEMPO 1620/1704 22028G46KT 4000 +SHRA
BECMG 1704/1707 24019KT PROB40
TEMPO 1707/1712 25022G34KT

Example: see airport list